Time,TemperatureF,DewpointF,PressureIn,WindDirection,WindDirectionDegrees,WindSpeedMPH,WindSpeedGustMPH,Humidity,HourlyPrecipIn,Conditions,Clouds,dailyrainin,SoftwareType,DateUTC
2013-01-25 06:55:00,55.0,53.3,30.31,North,349,0.0,0.0,94,0.00,,,0.00,Wunderground v.1.15,2013-01-25 11:55:00,
2013-01-25 07:00:00,55.0,53.3,30.31,North,349,0.0,0.0,94,0.00,,,0.00,Wunderground v.1.15,2013-01-25 12:00:00,
2013-01-25 07:10:00,55.1,53.7,30.31,East,93,0.0,0.0,95,0.00,,,0.00,Wunderground v.1.15,2013-01-25 12:10:00,
2013-01-25 07:15:00,55.2,53.5,30.31,East,92,0.0,0.0,94,0.00,,,0.00,Wunderground v.1.15,2013-01-25 12:15:00,
2013-01-25 07:20:00,55.1,53.4,30.32,East,92,0.0,0.0,94,0.00,,,0.00,Wunderground v.1.15,2013-01-25 12:20:00,
2013-01-25 07:25:00,55.1,53.4,30.32,East,91,0.0,0.0,94,0.00,,,0.00,Wunderground v.1.15,2013-01-25 12:25:00,
2013-01-25 07:30:00,55.0,53.3,30.31,East,91,0.0,0.0,94,0.00,,,0.00,Wunderground v.1.15,2013-01-25 12:30:00,
2013-01-25 07:35:00,54.9,53.5,30.31,East,91,0.0,0.0,95,0.00,,,0.00,Wunderground v.1.15,2013-01-25 12:35:00,
2013-01-25 07:40:00,55.0,53.6,30.31,East,91,0.0,0.0,95,0.00,,,0.00,Wunderground v.1.15,2013-01-25 12:40:00,
2013-01-25 07:45:00,55.1,53.7,30.31,East,92,0.0,0.0,95,0.00,,,0.00,Wunderground v.1.15,2013-01-25 12:45:00,
2013-01-25 07:55:00,55.0,53.6,30.32,East,91,0.0,0.0,95,0.00,,,0.00,Wunderground v.1.15,2013-01-25 12:55:00,
2013-01-25 08:00:00,55.0,53.6,30.31,East,91,0.0,0.0,95,0.00,,,0.00,Wunderground v.1.15,2013-01-25 13:00:00,
2013-01-25 08:10:00,55.3,53.9,30.32,ESE,113,0.0,0.0,95,0.00,,,0.00,Wunderground v.1.15,2013-01-25 13:10:00,
2013-01-25 08:20:00,55.8,54.4,30.32,ESE,113,0.0,0.0,95,0.00,,,0.00,Wunderground v.1.15,2013-01-25 13:20:00,
2013-01-25 08:25:00,56.2,54.8,30.32,SW,224,0.0,0.0,95,0.00,,,0.00,Wunderground v.1.15,2013-01-25 13:25:00,
2013-01-25 08:30:00,56.6,55.2,30.31,SW,224,0.0,0.0,95,0.00,,,0.00,Wunderground v.1.15,2013-01-25 13:30:00,
2013-01-25 08:35:00,57.0,55.6,30.32,SW,224,0.0,0.0,95,0.00,,,0.00,Wunderground v.1.15,2013-01-25 13:35:00,
2013-01-25 08:45:00,57.9,56.2,30.32,East,95,0.0,0.0,94,0.00,,,0.00,Wunderground v.1.15,2013-01-25 13:45:00,
2013-01-25 08:50:00,58.5,56.2,30.32,South,169,0.0,0.0,92,0.00,,,0.00,Wunderground v.1.15,2013-01-25 13:50:00,
2013-01-25 08:55:00,59.1,56.5,30.32,West,269,0.0,0.0,91,0.00,,,0.00,Wunderground v.1.15,2013-01-25 13:55:00,
2013-01-25 09:05:00,59.8,56.6,30.32,NNE,31,0.0,0.0,89,0.00,,,0.00,Wunderground v.1.15,2013-01-25 14:05:00,
2013-01-25 09:15:00,60.3,57.0,30.32,East,79,0.0,1.0,89,0.00,,,0.00,Wunderground v.1.15,2013-01-25 14:15:00,
2013-01-25 09:20:00,60.6,57.0,30.32,East,84,0.0,0.0,88,0.00,,,0.00,Wunderground v.1.15,2013-01-25 14:20:00,
2013-01-25 09:25:00,60.8,57.2,30.32,SE,140,0.0,1.0,88,0.00,,,0.00,Wunderground v.1.15,2013-01-25 14:25:00,
2013-01-25 09:35:00,61.5,57.9,30.32,ESE,115,0.0,1.0,88,0.00,,,0.00,Wunderground v.1.15,2013-01-25 14:35:00,
2013-01-25 09:40:00,61.8,58.2,30.32,NW,326,0.0,0.0,88,0.00,,,0.00,Wunderground v.1.15,2013-01-25 14:40:00,
2013-01-25 09:50:00,62.2,58.3,30.32,East,89,0.0,4.0,87,0.00,,,0.00,Wunderground v.1.15,2013-01-25 14:50:00,
2013-01-25 09:55:00,62.3,58.1,30.32,SE,131,1.0,4.0,86,0.00,,,0.00,Wunderground v.1.15,2013-01-25 14:55:00,
2013-01-25 10:05:00,63.0,59.1,30.32,ESE,120,1.0,2.0,87,0.00,,,0.00,Wunderground v.1.15,2013-01-25 15:05:00,
2013-01-25 10:10:00,63.4,58.5,30.32,East,90,0.0,0.0,84,0.00,,,0.00,Wunderground v.1.15,2013-01-25 15:10:00,
2013-01-25 10:15:00,63.9,59.3,30.32,West,263,0.0,0.0,85,0.00,,,0.00,Wunderground v.1.15,2013-01-25 15:15:00,
2013-01-25 10:20:00,64.6,59.3,30.32,WSW,249,0.0,0.0,83,0.00,,,0.00,Wunderground v.1.15,2013-01-25 15:20:00,
2013-01-25 10:30:00,65.1,59.1,30.31,WNW,286,1.0,1.0,81,0.00,,,0.00,Wunderground v.1.15,2013-01-25 15:30:00,
2013-01-25 10:35:00,65.5,58.8,30.31,West,273,0.0,1.0,79,0.00,,,0.00,Wunderground v.1.15,2013-01-25 15:35:00,
2013-01-25 10:40:00,66.1,59.4,30.31,NW,316,0.0,0.0,79,0.00,,,0.00,Wunderground v.1.15,2013-01-25 15:40:00,
2013-01-25 10:50:00,67.4,59.9,30.31,SW,233,1.0,1.0,77,0.00,,,0.00,Wunderground v.1.15,2013-01-25 15:50:00,
2013-01-25 10:55:00,67.7,58.7,30.31,WSW,256,0.0,1.0,73,0.00,,,0.00,Wunderground v.1.15,2013-01-25 15:55:00,
2013-01-25 11:00:00,68.8,58.2,30.31,North,11,0.0,0.0,69,0.00,,,0.00,Wunderground v.1.15,2013-01-25 16:00:00,
2013-01-25 11:10:00,68.8,59.0,30.30,East,82,1.0,1.0,71,0.00,,,0.00,Wunderground v.1.15,2013-01-25 16:10:00,
2013-01-25 11:15:00,68.9,59.1,30.30,East,100,1.0,1.0,71,0.00,,,0.00,Wunderground v.1.15,2013-01-25 16:15:00,
2013-01-25 11:20:00,69.7,58.7,30.30,ENE,70,0.0,0.0,68,0.00,,,0.00,Wunderground v.1.15,2013-01-25 16:20:00,
2013-01-25 11:30:00,69.8,59.6,30.29,WNW,292,1.0,1.0,70,0.00,,,0.00,Wunderground v.1.15,2013-01-25 16:30:00,
2013-01-25 11:35:00,70.2,57.4,30.30,ESE,105,0.0,2.0,64,0.00,,,0.00,Wunderground v.1.15,2013-01-25 16:35:00,
2013-01-25 11:40:00,69.7,57.0,30.29,ESE,113,1.0,1.0,64,0.00,,,0.00,Wunderground v.1.15,2013-01-25 16:40:00,
2013-01-25 11:50:00,70.9,59.0,30.29,East,86,0.0,2.0,66,0.00,,,0.00,Wunderground v.1.15,2013-01-25 16:50:00,
2013-01-25 11:55:00,70.9,50.8,30.28,ESE,108,1.0,2.0,49,0.00,,,0.00,Wunderground v.1.15,2013-01-25 16:55:00,
2013-01-25 12:00:00,71.4,47.7,30.28,West,274,1.0,1.0,43,0.00,,,0.00,Wunderground v.1.15,2013-01-25 17:00:00,
2013-01-25 12:10:00,72.1,49.6,30.27,East,84,1.0,1.0,45,0.00,,,0.00,Wunderground v.1.15,2013-01-25 17:10:00,
2013-01-25 12:15:00,72.3,48.5,30.27,NW,318,1.0,1.0,43,0.00,,,0.00,Wunderground v.1.15,2013-01-25 17:15:00,
2013-01-25 12:20:00,72.1,48.4,30.26,SW,216,1.0,1.0,43,0.00,,,0.00,Wunderground v.1.15,2013-01-25 17:20:00,
2013-01-25 12:30:00,72.3,46.6,30.25,SW,221,1.0,1.0,40,0.00,,,0.00,Wunderground v.1.15,2013-01-25 17:30:00,
2013-01-25 12:40:00,72.9,49.1,30.25,SW,235,0.0,1.0,43,0.00,,,0.00,Wunderground v.1.15,2013-01-25 17:40:00,
2013-01-25 12:45:00,72.9,48.5,30.24,SSE,150,1.0,1.0,42,0.00,,,0.00,Wunderground v.1.15,2013-01-25 17:45:00,
2013-01-25 12:55:00,72.9,48.5,30.24,West,267,1.0,2.0,42,0.00,,,0.00,Wunderground v.1.15,2013-01-25 17:55:00,
2013-01-25 13:00:00,72.7,47.6,30.23,ENE,57,1.0,1.0,41,0.00,,,0.00,Wunderground v.1.15,2013-01-25 18:00:00,
2013-01-25 13:10:00,72.7,48.9,30.22,SW,224,1.0,2.0,43,0.00,,,0.00,Wunderground v.1.15,2013-01-25 18:10:00,
2013-01-25 13:15:00,73.0,46.6,30.22,East,100,1.0,2.0,39,0.00,,,0.00,Wunderground v.1.15,2013-01-25 18:15:00,
2013-01-25 13:20:00,73.0,46.6,30.22,NW,321,1.0,1.0,39,0.00,,,0.00,Wunderground v.1.15,2013-01-25 18:20:00,
2013-01-25 13:30:00,73.0,47.2,30.21,SE,129,1.0,1.0,40,0.00,,,0.00,Wunderground v.1.15,2013-01-25 18:30:00,
2013-01-25 13:35:00,73.1,46.7,30.20,West,262,1.0,1.0,39,0.00,,,0.00,Wunderground v.1.15,2013-01-25 18:35:00,
2013-01-25 13:40:00,73.1,46.7,30.20,East,90,1.0,1.0,39,0.00,,,0.00,Wunderground v.1.15,2013-01-25 18:40:00,
2013-01-25 13:50:00,73.2,46.8,30.19,SE,134,1.0,1.0,39,0.00,,,0.00,Wunderground v.1.15,2013-01-25 18:50:00,
2013-01-25 13:55:00,72.9,46.5,30.19,West,281,1.0,1.0,39,0.00,,,0.00,Wunderground v.1.15,2013-01-25 18:55:00,
2013-01-25 14:00:00,72.5,46.8,30.20,NNE,30,2.0,3.0,40,0.00,,,0.00,Wunderground v.1.15,2013-01-25 19:00:00,
2013-01-25 14:10:00,69.1,55.5,30.19,East,82,1.0,1.0,62,0.00,,,0.00,Wunderground v.1.15,2013-01-25 19:10:00,
2013-01-25 14:15:00,69.1,56.4,30.19,ESE,109,1.0,2.0,64,0.00,,,0.00,Wunderground v.1.15,2013-01-25 19:15:00,
2013-01-25 14:20:00,68.1,56.3,30.19,ENE,67,2.0,2.0,66,0.00,,,0.00,Wunderground v.1.15,2013-01-25 19:20:00,
2013-01-25 14:25:00,68.0,57.0,30.19,NE,37,1.0,2.0,68,0.00,,,0.00,Wunderground v.1.15,2013-01-25 19:25:00,
2013-01-25 14:30:00,67.8,55.6,30.19,SSE,153,1.0,2.0,65,0.00,,,0.00,Wunderground v.1.15,2013-01-25 19:30:00,